TimeCST,TemperatureF,Dew PointF,Humidity,Sea Level PressureIn,VisibilityMPH,Wind Direction,Wind SpeedMPH,Gust SpeedMPH,PrecipitationIn,Events,Conditions,WindDirDegrees,DateUTC
12:15 AM,30.2,26.6,86,30.43,10.0,North,10.4,-,N/A,,Clear,360,2012-11-27 06:15:00
12:35 AM,30.2,26.6,86,30.42,10.0,North,10.4,-,N/A,,Clear,360,2012-11-27 06:35:00
12:55 AM,30.2,26.6,86,30.42,10.0,North,11.5,-,N/A,,Clear,350,2012-11-27 06:55:00
1:15 AM,30.2,26.6,86,30.42,10.0,North,10.4,-,N/A,,Clear,350,2012-11-27 07:15:00
1:35 AM,30.2,26.6,86,30.42,10.0,North,10.4,-,N/A,,Clear,350,2012-11-27 07:35:00
1:55 AM,30.2,26.6,86,30.42,7.0,North,10.4,-,N/A,,Clear,360,2012-11-27 07:55:00
2:15 AM,28.4,26.6,93,30.42,7.0,North,9.2,-,N/A,,Clear,350,2012-11-27 08:15:00
2:35 AM,28.4,26.6,93,30.42,5.0,North,6.9,-,N/A,,Clear,350,2012-11-27 08:35:00
2:55 AM,28.4,26.6,93,30.41,5.0,North,9.2,-,N/A,,Clear,360,2012-11-27 08:55:00
3:15 AM,28.4,26.6,93,30.42,5.0,NNW,6.9,-,N/A,,Clear,340,2012-11-27 09:15:00
3:35 AM,26.6,24.8,93,30.42,5.0,NNW,5.8,-,N/A,,Clear,340,2012-11-27 09:35:00
3:55 AM,26.6,24.8,93,30.42,5.0,NNW,8.1,-,N/A,,Clear,330,2012-11-27 09:55:00
4:15 AM,26.6,24.8,93,30.42,5.0,NNW,8.1,-,N/A,,Clear,330,2012-11-27 10:15:00
4:35 AM,26.6,26.6,100,30.42,5.0,NNW,6.9,-,N/A,,Clear,340,2012-11-27 10:35:00
4:55 AM,26.6,24.8,93,30.42,4.0,NNW,6.9,-,N/A,,Clear,330,2012-11-27 10:55:00
6:15 AM,23.0,23.0,100,30.44,10.0,North,9.2,-,N/A,,Clear,360,2012-11-27 12:15:00
6:50 AM,24.8,23.0,93,30.45,7.0,NNW,9.2,-,N/A,,Clear,330,2012-11-27 12:50:00
7:50 AM,24.8,23.0,93,30.46,5.0,NW,4.6,-,N/A,,Clear,310,2012-11-27 13:50:00
8:50 AM,30.2,30.2,100,30.47,5.0,North,6.9,-,N/A,,Clear,10,2012-11-27 14:50:00
9:50 AM,35.6,30.2,81,30.45,7.0,Calm,Calm,-,N/A,,Clear,0,2012-11-27 15:50:00
10:50 AM,39.2,28.4,65,30.46,10.0,SE,3.5,-,N/A,,Clear,130,2012-11-27 16:50:00
12:50 PM,44.6,28.4,53,30.39,10.0,South,11.5,-,N/A,,Clear,180,2012-11-27 18:50:00
1:50 PM,46.4,28.4,50,30.33,10.0,South,16.1,-,N/A,,Clear,190,2012-11-27 19:50:00
2:50 PM,50.0,26.6,40,30.31,10.0,South,17.3,-,N/A,,Clear,170,2012-11-27 20:50:00
5:50 PM,41.0,26.6,57,30.27,10.0,South,11.5,-,N/A,,Partly Cloudy,180,2012-11-27 23:50:00
6:50 PM,35.6,24.8,65,30.28,10.0,SSE,5.8,-,N/A,,Partly Cloudy,150,2012-11-28 00:50:00
7:50 PM,33.8,24.8,70,30.29,10.0,SSE,5.8,-,N/A,,Partly Cloudy,160,2012-11-28 01:50:00
8:15 PM,32.0,24.8,75,30.28,10.0,Calm,Calm,-,N/A,,Clear,0,2012-11-28 02:15:00
8:35 PM,32.0,26.6,80,30.28,10.0,Calm,Calm,-,N/A,,Clear,0,2012-11-28 02:35:00
8:55 PM,32.0,24.8,75,30.30,10.0,South,3.5,-,N/A,,Partly Cloudy,170,2012-11-28 02:55:00
9:15 PM,32.0,24.8,75,30.29,10.0,Calm,Calm,-,N/A,,Clear,0,2012-11-28 03:15:00
9:35 PM,32.0,26.6,80,30.29,10.0,Calm,Calm,-,N/A,,Clear,0,2012-11-28 03:35:00
9:55 PM,32.0,26.6,80,30.29,10.0,South,3.5,-,N/A,,Clear,180,2012-11-28 03:55:00
10:15 PM,30.2,23.0,75,30.29,10.0,South,3.5,-,N/A,,Clear,190,2012-11-28 04:15:00
10:55 PM,30.2,24.8,80,30.29,10.0,South,3.5,-,N/A,,Clear,190,2012-11-28 04:55:00
11:15 PM,30.2,26.6,86,30.29,10.0,South,3.5,-,N/A,,Clear,180,2012-11-28 05:15:00
11:55 PM,30.2,24.8,80,30.30,10.0,South,4.6,-,N/A,,Clear,170,2012-11-28 05:55:00